sensor_id;sensor_type;location;lat;lon;timestamp;pressure;altitude;pressure_sealevel;temperature;humidity
58534;BME280;44109;52.398;7.024;2024-01-25T00:02:15;102334.69;;;9.00;100.00
58534;BME280;44109;52.398;7.024;2024-01-25T00:04:43;102339.03;;;8.83;100.00
58534;BME280;44109;52.398;7.024;2024-01-25T00:07:10;102345.41;;;8.93;100.00
58534;BME280;44109;52.398;7.024;2024-01-25T00:09:38;102342.66;;;9.01;100.00
58534;BME280;44109;52.398;7.024;2024-01-25T00:12:07;102347.72;;;9.08;100.00
58534;BME280;44109;52.398;7.024;2024-01-25T00:14:34;102347.53;;;8.87;100.00
58534;BME280;44109;52.398;7.024;2024-01-25T00:24:26;102355.34;;;8.54;100.00
58534;BME280;44109;52.398;7.024;2024-01-25T00:26:53;102350.34;;;8.64;100.00
58534;BME280;44109;52.398;7.024;2024-01-25T00:29:22;102355.69;;;8.61;100.00
58534;BME280;44109;52.398;7.024;2024-01-25T00:31:50;102355.22;;;8.59;100.00
58534;BME280;44109;52.398;7.024;2024-01-25T00:34:18;102367.56;;;8.93;100.00
58534;BME280;44109;52.398;7.024;2024-01-25T00:36:48;102362.75;;;8.45;100.00
58534;BME280;44109;52.398;7.024;2024-01-25T00:39:17;102365.03;;;8.43;100.00
58534;BME280;44109;52.398;7.024;2024-01-25T00:41:46;102365.66;;;8.39;100.00
58534;BME280;44109;52.398;7.024;2024-01-25T00:44:20;102366.31;;;8.36;100.00
58534;BME280;44109;52.398;7.024;2024-01-25T00:46:50;102375.44;;;8.68;100.00
58534;BME280;44109;52.398;7.024;2024-01-25T00:49:20;102375.63;;;8.41;100.00
58534;BME280;44109;52.398;7.024;2024-01-25T00:51:48;102378.47;;;8.35;100.00
58534;BME280;44109;52.398;7.024;2024-01-25T00:54:18;102371.25;;;8.26;100.00
58534;BME280;44109;52.398;7.024;2024-01-25T00:56:46;102370.16;;;8.58;100.00
58534;BME280;44109;52.398;7.024;2024-01-25T00:59:17;102352.75;;;8.57;100.00
58534;BME280;44109;52.398;7.024;2024-01-25T01:01:46;102365.03;;;8.20;100.00
58534;BME280;44109;52.398;7.024;2024-01-25T01:04:17;102377.97;;;8.33;100.00
58534;BME280;44109;52.398;7.024;2024-01-25T01:06:45;102374.34;;;8.24;100.00
58534;BME280;44109;52.398;7.024;2024-01-25T01:09:14;102382.19;;;8.53;100.00
58534;BME280;44109;52.398;7.024;2024-01-25T01:11:41;102375.22;;;8.56;100.00
58534;BME280;44109;52.398;7.024;2024-01-25T01:14:09;102373.00;;;8.44;100.00
58534;BME280;44109;52.398;7.024;2024-01-25T01:16:36;102378.38;;;8.41;100.00
58534;BME280;44109;52.398;7.024;2024-01-25T01:19:04;102384.38;;;8.65;100.00
58534;BME280;44109;52.398;7.024;2024-01-25T01:21:35;102393.69;;;8.47;100.00
58534;BME280;44109;52.398;7.024;2024-01-25T01:24:03;102386.53;;;8.23;100.00
58534;BME280;44109;52.398;7.024;2024-01-25T01:26:31;102381.38;;;8.30;100.00
58534;BME280;44109;52.398;7.024;2024-01-25T01:29:01;102376.44;;;8.41;100.00
58534;BME280;44109;52.398;7.024;2024-01-25T01:31:28;102390.56;;;8.39;100.00
58534;BME280;44109;52.398;7.024;2024-01-25T01:33:56;102400.53;;;8.49;100.00
58534;BME280;44109;52.398;7.024;2024-01-25T01:36:24;102391.41;;;8.26;100.00
58534;BME280;44109;52.398;7.024;2024-01-25T01:38:53;102391.38;;;8.18;100.00
58534;BME280;44109;52.398;7.024;2024-01-25T01:41:22;102383.41;;;8.38;100.00
58534;BME280;44109;52.398;7.024;2024-01-25T01:43:52;102382.16;;;8.22;100.00
58534;BME280;44109;52.398;7.024;2024-01-25T01:46:29;102380.56;;;8.07;100.00
58534;BME280;44109;52.398;7.024;2024-01-25T01:49:00;102378.50;;;8.13;100.00
58534;BME280;44109;52.398;7.024;2024-01-25T01:51:30;102393.34;;;7.81;100.00
58534;BME280;44109;52.398;7.024;2024-01-25T01:54:00;102408.34;;;7.66;100.00
58534;BME280;44109;52.398;7.024;2024-01-25T01:56:29;102409.59;;;7.60;100.00
58534;BME280;44109;52.398;7.024;2024-01-25T01:58:58;102412.81;;;7.76;100.00
58534;BME280;44109;52.398;7.024;2024-01-25T02:01:27;102417.50;;;7.75;100.00
58534;BME280;44109;52.398;7.024;2024-01-25T02:03:55;102408.56;;;7.56;100.00
58534;BME280;44109;52.398;7.024;2024-01-25T02:06:23;102414.66;;;7.67;100.00
58534;BME280;44109;52.398;7.024;2024-01-25T02:08:51;102424.59;;;7.81;100.00
58534;BME280;44109;52.398;7.024;2024-01-25T02:11:26;102418.56;;;8.24;100.00
58534;BME280;44109;52.398;7.024;2024-01-25T02:13:53;102418.03;;;7.77;100.00
58534;BME280;44109;52.398;7.024;2024-01-25T02:16:21;102420.16;;;7.80;100.00
58534;BME280;44109;52.398;7.024;2024-01-25T02:18:49;102436.00;;;7.88;100.00
58534;BME280;44109;52.398;7.024;2024-01-25T02:21:16;102427.78;;;7.61;100.00
58534;BME280;44109;52.398;7.024;2024-01-25T02:23:45;102435.94;;;7.66;100.00
58534;BME280;44109;52.398;7.024;2024-01-25T02:26:13;102437.38;;;7.77;100.00
58534;BME280;44109;52.398;7.024;2024-01-25T02:28:41;102431.56;;;7.65;100.00
58534;BME280;44109;52.398;7.024;2024-01-25T02:31:08;102438.41;;;8.04;100.00
58534;BME280;44109;52.398;7.024;2024-01-25T02:33:36;102425.91;;;7.70;100.00
58534;BME280;44109;52.398;7.024;2024-01-25T02:36:04;102448.28;;;7.32;100.00
58534;BME280;44109;52.398;7.024;2024-01-25T02:38:32;102439.56;;;7.11;100.00
58534;BME280;44109;52.398;7.024;2024-01-25T02:41:01;102445.41;;;7.37;100.00
58534;BME280;44109;52.398;7.024;2024-01-25T02:43:31;102445.72;;;7.36;100.00
58534;BME280;44109;52.398;7.024;2024-01-25T02:45:58;102441.41;;;7.30;100.00
58534;BME280;44109;52.398;7.024;2024-01-25T02:48:26;102457.06;;;7.34;100.00
58534;BME280;44109;52.398;7.024;2024-01-25T02:50:54;102455.63;;;7.23;100.00
58534;BME280;44109;52.398;7.024;2024-01-25T02:53:21;102451.13;;;6.86;100.00
58534;BME280;44109;52.398;7.024;2024-01-25T02:55:49;102461.25;;;6.91;100.00
58534;BME280;44109;52.398;7.024;2024-01-25T02:58:18;102460.81;;;6.97;100.00
58534;BME280;44109;52.398;7.024;2024-01-25T03:00:46;102456.44;;;6.96;100.00
58534;BME280;44109;52.398;7.024;2024-01-25T03:03:14;102457.47;;;7.14;100.00
58534;BME280;44109;52.398;7.024;2024-01-25T03:05:42;102454.41;;;7.02;100.00
58534;BME280;44109;52.398;7.024;2024-01-25T03:08:09;102458.50;;;7.18;100.00
58534;BME280;44109;52.398;7.024;2024-01-25T03:10:37;102464.50;;;6.93;100.00
58534;BME280;44109;52.398;7.024;2024-01-25T03:13:05;102469.72;;;7.08;100.00
58534;BME280;44109;52.398;7.024;2024-01-25T03:15:34;102454.09;;;7.17;100.00
58534;BME280;44109;52.398;7.024;2024-01-25T03:18:01;102462.78;;;7.24;100.00
58534;BME280;44109;52.398;7.024;2024-01-25T03:20:29;102471.16;;;7.05;100.00
58534;BME280;44109;52.398;7.024;2024-01-25T03:22:56;102479.50;;;6.86;100.00
58534;BME280;44109;52.398;7.024;2024-01-25T03:25:24;102472.88;;;6.88;100.00
58534;BME280;44109;52.398;7.024;2024-01-25T03:27:51;102485.13;;;6.81;100.00
58534;BME280;44109;52.398;7.024;2024-01-25T03:30:19;102483.75;;;6.65;100.00
58534;BME280;44109;52.398;7.024;2024-01-25T03:32:48;102484.69;;;6.74;100.00
58534;BME280;44109;52.398;7.024;2024-01-25T03:35:16;102477.09;;;6.66;100.00
58534;BME280;44109;52.398;7.024;2024-01-25T03:37:43;102467.63;;;6.40;100.00
58534;BME280;44109;52.398;7.024;2024-01-25T03:40:11;102488.31;;;6.56;100.00
58534;BME280;44109;52.398;7.024;2024-01-25T03:42:38;102495.22;;;6.72;100.00
58534;BME280;44109;52.398;7.024;2024-01-25T03:45:07;102499.44;;;6.51;100.00
58534;BME280;44109;52.398;7.024;2024-01-25T03:47:35;102492.69;;;6.57;100.00
58534;BME280;44109;52.398;7.024;2024-01-25T03:50:04;102505.44;;;6.53;100.00
58534;BME280;44109;52.398;7.024;2024-01-25T03:52:32;102496.00;;;6.59;100.00
58534;BME280;44109;52.398;7.024;2024-01-25T03:55:00;102491.06;;;6.56;100.00
58534;BME280;44109;52.398;7.024;2024-01-25T03:57:27;102499.94;;;6.53;100.00
58534;BME280;44109;52.398;7.024;2024-01-25T03:59:55;102472.78;;;6.27;100.00
58534;BME280;44109;52.398;7.024;2024-01-25T04:02:23;102497.25;;;6.48;100.00
58534;BME280;44109;52.398;7.024;2024-01-25T04:04:50;102494.50;;;6.48;100.00
58534;BME280;44109;52.398;7.024;2024-01-25T04:07:19;102493.47;;;6.44;100.00
58534;BME280;44109;52.398;7.024;2024-01-25T04:09:47;102504.00;;;6.23;100.00
58534;BME280;44109;52.398;7.024;2024-01-25T04:12:16;102507.91;;;6.35;100.00
58534;BME280;44109;52.398;7.024;2024-01-25T04:14:44;102501.22;;;6.42;100.00
58534;BME280;44109;52.398;7.024;2024-01-25T04:17:12;102511.56;;;6.31;100.00
58534;BME280;44109;52.398;7.024;2024-01-25T04:19:39;102505.25;;;6.30;100.00
58534;BME280;44109;52.398;7.024;2024-01-25T04:22:07;102506.69;;;6.28;100.00
58534;BME280;44109;52.398;7.024;2024-01-25T04:24:36;102508.09;;;6.25;100.00
58534;BME280;44109;52.398;7.024;2024-01-25T04:27:04;102520.72;;;6.26;100.00
58534;BME280;44109;52.398;7.024;2024-01-25T04:29:32;102519.63;;;6.08;100.00
58534;BME280;44109;52.398;7.024;2024-01-25T04:31:59;102523.38;;;6.18;100.00
58534;BME280;44109;52.398;7.024;2024-01-25T04:34:27;102506.84;;;6.18;100.00
58534;BME280;44109;52.398;7.024;2024-01-25T04:36:55;102512.03;;;6.19;100.00
58534;BME280;44109;52.398;7.024;2024-01-25T04:39:22;102516.97;;;6.22;100.00
58534;BME280;44109;52.398;7.024;2024-01-25T04:41:51;102516.34;;;6.25;100.00
58534;BME280;44109;52.398;7.024;2024-01-25T04:44:19;102516.06;;;6.27;100.00
58534;BME280;44109;52.398;7.024;2024-01-25T04:46:47;102513.59;;;6.06;100.00
58534;BME280;44109;52.398;7.024;2024-01-25T04:49:14;102507.28;;;6.06;100.00
58534;BME280;44109;52.398;7.024;2024-01-25T04:51:42;102513.91;;;6.05;100.00
58534;BME280;44109;52.398;7.024;2024-01-25T04:54:09;102501.03;;;6.00;100.00
58534;BME280;44109;52.398;7.024;2024-01-25T04:56:38;102503.94;;;6.09;100.00
58534;BME280;44109;52.398;7.024;2024-01-25T04:59:07;102511.06;;;6.10;100.00
58534;BME280;44109;52.398;7.024;2024-01-25T05:01:35;102504.50;;;6.06;100.00
58534;BME280;44109;52.398;7.024;2024-01-25T05:04:03;102512.94;;;5.96;100.00
58534;BME280;44109;52.398;7.024;2024-01-25T05:06:31;102516.72;;;6.00;100.00
58534;BME280;44109;52.398;7.024;2024-01-25T05:08:58;102518.59;;;6.04;100.00
58534;BME280;44109;52.398;7.024;2024-01-25T05:11:27;102519.34;;;6.10;100.00
58534;BME280;44109;52.398;7.024;2024-01-25T05:13:54;102517.91;;;5.94;100.00
58534;BME280;44109;52.398;7.024;2024-01-25T05:16:23;102520.88;;;5.97;100.00
58534;BME280;44109;52.398;7.024;2024-01-25T05:18:51;102520.59;;;5.99;100.00
58534;BME280;44109;52.398;7.024;2024-01-25T05:21:18;102542.19;;;5.92;100.00
58534;BME280;44109;52.398;7.024;2024-01-25T05:23:46;102538.00;;;5.94;100.00
58534;BME280;44109;52.398;7.024;2024-01-25T05:26:13;102537.41;;;5.97;100.00
58534;BME280;44109;52.398;7.024;2024-01-25T05:28:43;102532.22;;;5.96;100.00
58534;BME280;44109;52.398;7.024;2024-01-25T05:31:10;102542.44;;;5.90;100.00
58534;BME280;44109;52.398;7.024;2024-01-25T05:33:42;102533.72;;;5.83;100.00
58534;BME280;44109;52.398;7.024;2024-01-25T05:36:10;102535.41;;;5.79;100.00
58534;BME280;44109;52.398;7.024;2024-01-25T05:38:38;102547.19;;;5.84;100.00
58534;BME280;44109;52.398;7.024;2024-01-25T05:41:05;102541.69;;;5.84;100.00
58534;BME280;44109;52.398;7.024;2024-01-25T05:43:33;102537.66;;;5.77;100.00
58534;BME280;44109;52.398;7.024;2024-01-25T05:46:01;102538.53;;;5.72;100.00
58534;BME280;44109;52.398;7.024;2024-01-25T05:48:28;102546.03;;;5.67;100.00
58534;BME280;44109;52.398;7.024;2024-01-25T05:50:57;102546.16;;;5.56;100.00
58534;BME280;44109;52.398;7.024;2024-01-25T05:53:25;102545.63;;;5.54;100.00
58534;BME280;44109;52.398;7.024;2024-01-25T05:55:52;102548.03;;;5.61;100.00
58534;BME280;44109;52.398;7.024;2024-01-25T05:58:20;102546.91;;;5.62;100.00
58534;BME280;44109;52.398;7.024;2024-01-25T06:00:48;102546.25;;;5.70;100.00
58534;BME280;44109;52.398;7.024;2024-01-25T06:03:15;102543.56;;;5.65;100.00
58534;BME280;44109;52.398;7.024;2024-01-25T06:05:43;102548.19;;;5.70;100.00
58534;BME280;44109;52.398;7.024;2024-01-25T06:08:12;102549.38;;;5.64;100.00
58534;BME280;44109;52.398;7.024;2024-01-25T06:10:39;102548.66;;;5.53;100.00
58534;BME280;44109;52.398;7.024;2024-01-25T06:13:07;102546.84;;;5.43;100.00
58534;BME280;44109;52.398;7.024;2024-01-25T06:15:34;102547.66;;;5.44;100.00
58534;BME280;44109;52.398;7.024;2024-01-25T06:18:02;102554.34;;;5.38;100.00
58534;BME280;44109;52.398;7.024;2024-01-25T06:20:30;102563.66;;;5.42;100.00
58534;BME280;44109;52.398;7.024;2024-01-25T06:22:58;102563.41;;;5.38;100.00
58534;BME280;44109;52.398;7.024;2024-01-25T06:25:27;102571.69;;;5.38;100.00
58534;BME280;44109;52.398;7.024;2024-01-25T06:27:56;102573.03;;;5.41;100.00
58534;BME280;44109;52.398;7.024;2024-01-25T06:30:25;102577.44;;;5.42;100.00
58534;BME280;44109;52.398;7.024;2024-01-25T06:32:52;102587.84;;;5.45;100.00
58534;BME280;44109;52.398;7.024;2024-01-25T06:35:20;102594.56;;;5.33;100.00
58534;BME280;44109;52.398;7.024;2024-01-25T06:37:48;102548.63;;;5.05;100.00
58534;BME280;44109;52.398;7.024;2024-01-25T06:40:15;102586.81;;;5.35;100.00
58534;BME280;44109;52.398;7.024;2024-01-25T06:42:45;102581.44;;;5.25;100.00
58534;BME280;44109;52.398;7.024;2024-01-25T06:45:12;102592.38;;;5.30;100.00
58534;BME280;44109;52.398;7.024;2024-01-25T06:47:40;102591.50;;;5.35;100.00
58534;BME280;44109;52.398;7.024;2024-01-25T06:50:08;102596.16;;;5.40;100.00
58534;BME280;44109;52.398;7.024;2024-01-25T06:52:36;102586.31;;;5.33;100.00
58534;BME280;44109;52.398;7.024;2024-01-25T06:55:04;102589.56;;;5.35;100.00
58534;BME280;44109;52.398;7.024;2024-01-25T06:57:32;102584.63;;;5.38;100.00
58534;BME280;44109;52.398;7.024;2024-01-25T07:00:01;102596.50;;;5.33;100.00
58534;BME280;44109;52.398;7.024;2024-01-25T07:02:29;102585.25;;;5.29;100.00
58534;BME280;44109;52.398;7.024;2024-01-25T07:04:57;102585.59;;;5.23;100.00
58534;BME280;44109;52.398;7.024;2024-01-25T07:07:25;102579.59;;;5.16;100.00
58534;BME280;44109;52.398;7.024;2024-01-25T07:09:52;102583.72;;;5.18;100.00
58534;BME280;44109;52.398;7.024;2024-01-25T07:12:20;102579.09;;;5.14;100.00
58534;BME280;44109;52.398;7.024;2024-01-25T07:14:48;102586.28;;;5.09;100.00
58534;BME280;44109;52.398;7.024;2024-01-25T07:17:17;102587.59;;;5.12;100.00
58534;BME280;44109;52.398;7.024;2024-01-25T07:19:44;102587.09;;;5.10;100.00
58534;BME280;44109;52.398;7.024;2024-01-25T07:22:12;102588.22;;;5.09;100.00
58534;BME280;44109;52.398;7.024;2024-01-25T07:24:41;102585.41;;;5.14;100.00
58534;BME280;44109;52.398;7.024;2024-01-25T07:27:08;102590.31;;;5.17;100.00
58534;BME280;44109;52.398;7.024;2024-01-25T07:29:37;102594.47;;;5.15;100.00
58534;BME280;44109;52.398;7.024;2024-01-25T07:32:05;102589.03;;;5.09;100.00
58534;BME280;44109;52.398;7.024;2024-01-25T07:34:34;102590.91;;;5.14;100.00
58534;BME280;44109;52.398;7.024;2024-01-25T07:37:03;102594.94;;;5.22;100.00
58534;BME280;44109;52.398;7.024;2024-01-25T07:39:31;102600.69;;;5.25;100.00
58534;BME280;44109;52.398;7.024;2024-01-25T07:41:58;102607.25;;;5.29;100.00
58534;BME280;44109;52.398;7.024;2024-01-25T07:44:26;102609.97;;;5.34;100.00
58534;BME280;44109;52.398;7.024;2024-01-25T07:46:53;102611.44;;;5.27;100.00
58534;BME280;44109;52.398;7.024;2024-01-25T07:49:21;102616.53;;;5.39;100.00
58534;BME280;44109;52.398;7.024;2024-01-25T07:51:50;102617.59;;;5.43;100.00
58534;BME280;44109;52.398;7.024;2024-01-25T07:54:17;102613.72;;;5.44;100.00
58534;BME280;44109;52.398;7.024;2024-01-25T07:56:45;102618.72;;;5.42;100.00
58534;BME280;44109;52.398;7.024;2024-01-25T07:59:13;102620.03;;;5.44;100.00
58534;BME280;44109;52.398;7.024;2024-01-25T08:01:40;102623.34;;;5.46;100.00
58534;BME280;44109;52.398;7.024;2024-01-25T08:04:08;102636.69;;;5.58;100.00
58534;BME280;44109;52.398;7.024;2024-01-25T08:06:35;102630.38;;;5.57;100.00
58534;BME280;44109;52.398;7.024;2024-01-25T08:09:04;102620.53;;;5.51;100.00
58534;BME280;44109;52.398;7.024;2024-01-25T08:11:32;102633.84;;;5.68;100.00
58534;BME280;44109;52.398;7.024;2024-01-25T08:13:59;102644.19;;;5.81;100.00
58534;BME280;44109;52.398;7.024;2024-01-25T08:16:27;102647.97;;;5.85;100.00
58534;BME280;44109;52.398;7.024;2024-01-25T08:18:55;102643.31;;;5.86;100.00
58534;BME280;44109;52.398;7.024;2024-01-25T08:21:24;102639.91;;;5.94;100.00
58534;BME280;44109;52.398;7.024;2024-01-25T08:23:52;102642.25;;;6.06;100.00
58534;BME280;44109;52.398;7.024;2024-01-25T08:26:21;102646.34;;;6.08;100.00
58534;BME280;44109;52.398;7.024;2024-01-25T08:28:48;102641.91;;;6.13;100.00
58534;BME280;44109;52.398;7.024;2024-01-25T08:31:16;102647.63;;;6.16;100.00
58534;BME280;44109;52.398;7.024;2024-01-25T08:33:44;102655.84;;;6.21;100.00
58534;BME280;44109;52.398;7.024;2024-01-25T08:36:13;102659.00;;;6.33;100.00
58534;BME280;44109;52.398;7.024;2024-01-25T08:38:44;102655.13;;;6.34;100.00
58534;BME280;44109;52.398;7.024;2024-01-25T08:41:12;102660.28;;;6.41;100.00
58534;BME280;44109;52.398;7.024;2024-01-25T08:43:42;102655.22;;;6.48;100.00
58534;BME280;44109;52.398;7.024;2024-01-25T08:46:13;102662.16;;;6.46;100.00
58534;BME280;44109;52.398;7.024;2024-01-25T08:48:41;102655.97;;;6.54;100.00
58534;BME280;44109;52.398;7.024;2024-01-25T08:51:09;102654.88;;;6.55;100.00
58534;BME280;44109;52.398;7.024;2024-01-25T08:53:36;102607.59;;;6.43;100.00
58534;BME280;44109;52.398;7.024;2024-01-25T08:56:04;102655.91;;;6.59;100.00
58534;BME280;44109;52.398;7.024;2024-01-25T08:58:32;102662.09;;;6.70;100.00
58534;BME280;44109;52.398;7.024;2024-01-25T09:01:01;102659.91;;;6.67;100.00
58534;BME280;44109;52.398;7.024;2024-01-25T09:03:29;102657.03;;;6.77;100.00
58534;BME280;44109;52.398;7.024;2024-01-25T09:05:57;102657.41;;;6.70;100.00
58534;BME280;44109;52.398;7.024;2024-01-25T09:08:24;102659.84;;;6.72;100.00
58534;BME280;44109;52.398;7.024;2024-01-25T09:10:52;102661.03;;;6.84;100.00
58534;BME280;44109;52.398;7.024;2024-01-25T09:13:19;102643.59;;;6.70;100.00
58534;BME280;44109;52.398;7.024;2024-01-25T09:15:47;102654.41;;;6.85;100.00
58534;BME280;44109;52.398;7.024;2024-01-25T09:18:16;102641.56;;;6.95;100.00
58534;BME280;44109;52.398;7.024;2024-01-25T09:20:44;102653.00;;;6.88;100.00
58534;BME280;44109;52.398;7.024;2024-01-25T09:23:14;102654.91;;;7.06;100.00
58534;BME280;44109;52.398;7.024;2024-01-25T09:25:42;102656.25;;;7.09;100.00
58534;BME280;44109;52.398;7.024;2024-01-25T09:28:10;102652.16;;;7.06;100.00
58534;BME280;44109;52.398;7.024;2024-01-25T09:30:38;102665.41;;;7.23;100.00
58534;BME280;44109;52.398;7.024;2024-01-25T09:33:06;102658.16;;;7.27;100.00
58534;BME280;44109;52.398;7.024;2024-01-25T09:35:35;102658.66;;;7.29;100.00
58534;BME280;44109;52.398;7.024;2024-01-25T09:38:03;102659.31;;;7.07;100.00
58534;BME280;44109;52.398;7.024;2024-01-25T09:40:31;102658.28;;;7.36;100.00
58534;BME280;44109;52.398;7.024;2024-01-25T09:42:59;102657.25;;;7.32;100.00
58534;BME280;44109;52.398;7.024;2024-01-25T09:45:27;102650.88;;;7.64;100.00
58534;BME280;44109;52.398;7.024;2024-01-25T09:47:55;102657.16;;;7.83;100.00
58534;BME280;44109;52.398;7.024;2024-01-25T09:50:23;102659.00;;;7.88;100.00
58534;BME280;44109;52.398;7.024;2024-01-25T09:52:54;102649.56;;;8.03;100.00
58534;BME280;44109;52.398;7.024;2024-01-25T09:55:24;102654.91;;;8.13;100.00
58534;BME280;44109;52.398;7.024;2024-01-25T09:57:54;102665.13;;;8.12;100.00
58534;BME280;44109;52.398;7.024;2024-01-25T10:00:22;102652.03;;;8.18;100.00
58534;BME280;44109;52.398;7.024;2024-01-25T10:02:50;102656.13;;;8.07;100.00
58534;BME280;44109;52.398;7.024;2024-01-25T10:05:18;102663.59;;;8.20;100.00
58534;BME280;44109;52.398;7.024;2024-01-25T10:07:46;102665.31;;;8.30;100.00
58534;BME280;44109;52.398;7.024;2024-01-25T10:10:15;102658.50;;;8.27;100.00
58534;BME280;44109;52.398;7.024;2024-01-25T10:12:42;102673.34;;;8.45;100.00
58534;BME280;44109;52.398;7.024;2024-01-25T10:15:10;102664.00;;;8.55;100.00
58534;BME280;44109;52.398;7.024;2024-01-25T10:17:38;102665.28;;;8.71;100.00
58534;BME280;44109;52.398;7.024;2024-01-25T10:20:07;102656.88;;;8.76;100.00
58534;BME280;44109;52.398;7.024;2024-01-25T10:22:37;102665.28;;;8.71;100.00
58534;BME280;44109;52.398;7.024;2024-01-25T10:25:12;102659.97;;;8.97;100.00
58534;BME280;44109;52.398;7.024;2024-01-25T10:27:41;102660.47;;;8.77;100.00
58534;BME280;44109;52.398;7.024;2024-01-25T10:30:10;102656.72;;;8.95;100.00
58534;BME280;44109;52.398;7.024;2024-01-25T10:32:39;102643.44;;;9.06;100.00
58534;BME280;44109;52.398;7.024;2024-01-25T10:35:09;102639.72;;;9.10;100.00
58534;BME280;44109;52.398;7.024;2024-01-25T10:37:39;102633.13;;;9.20;100.00
58534;BME280;44109;52.398;7.024;2024-01-25T10:40:09;102637.03;;;9.19;100.00
58534;BME280;44109;52.398;7.024;2024-01-25T10:42:38;102640.13;;;9.18;100.00
58534;BME280;44109;52.398;7.024;2024-01-25T10:45:08;102638.16;;;9.40;100.00
58534;BME280;44109;52.398;7.024;2024-01-25T10:47:36;102642.91;;;9.26;100.00
58534;BME280;44109;52.398;7.024;2024-01-25T10:50:07;102633.91;;;9.43;100.00
58534;BME280;44109;52.398;7.024;2024-01-25T10:52:37;102632.81;;;9.53;100.00
58534;BME280;44109;52.398;7.024;2024-01-25T10:55:06;102628.13;;;9.62;100.00
58534;BME280;44109;52.398;7.024;2024-01-25T10:57:35;102637.72;;;9.56;100.00
58534;BME280;44109;52.398;7.024;2024-01-25T11:00:09;102637.19;;;9.85;100.00
58534;BME280;44109;52.398;7.024;2024-01-25T11:02:39;102638.53;;;9.87;100.00
58534;BME280;44109;52.398;7.024;2024-01-25T11:05:09;102620.75;;;9.88;100.00
58534;BME280;44109;52.398;7.024;2024-01-25T11:07:42;102639.16;;;9.84;100.00
58534;BME280;44109;52.398;7.024;2024-01-25T11:10:16;102632.56;;;9.72;100.00
58534;BME280;44109;52.398;7.024;2024-01-25T11:12:51;102613.16;;;9.63;100.00
58534;BME280;44109;52.398;7.024;2024-01-25T11:15:24;102624.63;;;9.79;100.00
58534;BME280;44109;52.398;7.024;2024-01-25T11:17:58;102618.22;;;9.70;100.00
58534;BME280;44109;52.398;7.024;2024-01-25T11:20:27;102621.16;;;9.64;100.00
58534;BME280;44109;52.398;7.024;2024-01-25T11:22:56;102621.47;;;9.63;100.00
58534;BME280;44109;52.398;7.024;2024-01-25T11:25:27;102615.72;;;9.51;100.00
58534;BME280;44109;52.398;7.024;2024-01-25T11:27:55;102594.06;;;9.30;100.00
58534;BME280;44109;52.398;7.024;2024-01-25T11:30:25;102609.16;;;9.47;100.00
58534;BME280;44109;52.398;7.024;2024-01-25T11:32:53;102605.53;;;9.37;100.00
58534;BME280;44109;52.398;7.024;2024-01-25T11:35:21;102610.78;;;9.48;100.00
58534;BME280;44109;52.398;7.024;2024-01-25T11:37:50;102617.44;;;9.38;100.00
58534;BME280;44109;52.398;7.024;2024-01-25T11:40:18;102614.84;;;9.42;100.00
58534;BME280;44109;52.398;7.024;2024-01-25T11:42:48;102605.44;;;9.51;100.00
58534;BME280;44109;52.398;7.024;2024-01-25T11:45:17;102606.47;;;9.64;100.00
58534;BME280;44109;52.398;7.024;2024-01-25T11:47:46;102587.78;;;9.78;100.00
58534;BME280;44109;52.398;7.024;2024-01-25T11:50:14;102577.69;;;9.82;100.00
58534;BME280;44109;52.398;7.024;2024-01-25T11:52:41;102583.59;;;9.98;100.00
58534;BME280;44109;52.398;7.024;2024-01-25T11:55:10;102578.59;;;10.09;100.00
58534;BME280;44109;52.398;7.024;2024-01-25T11:57:40;102586.06;;;10.00;100.00
58534;BME280;44109;52.398;7.024;2024-01-25T12:00:09;102578.22;;;10.02;100.00
58534;BME280;44109;52.398;7.024;2024-01-25T12:02:40;102578.91;;;10.16;100.00
58534;BME280;44109;52.398;7.024;2024-01-25T12:05:10;102561.69;;;10.28;100.00
58534;BME280;44109;52.398;7.024;2024-01-25T12:07:39;102554.19;;;10.46;100.00
58534;BME280;44109;52.398;7.024;2024-01-25T12:10:08;102550.06;;;10.86;100.00
58534;BME280;44109;52.398;7.024;2024-01-25T12:12:42;102544.56;;;11.33;100.00
58534;BME280;44109;52.398;7.024;2024-01-25T12:15:10;102547.94;;;11.48;100.00
58534;BME280;44109;52.398;7.024;2024-01-25T12:17:38;102538.41;;;11.57;100.00
58534;BME280;44109;52.398;7.024;2024-01-25T12:20:07;102544.13;;;11.61;100.00
58534;BME280;44109;52.398;7.024;2024-01-25T12:22:38;102530.38;;;11.64;100.00
58534;BME280;44109;52.398;7.024;2024-01-25T12:25:09;102531.44;;;11.42;100.00
58534;BME280;44109;52.398;7.024;2024-01-25T12:27:40;102528.09;;;11.58;100.00
58534;BME280;44109;52.398;7.024;2024-01-25T12:30:08;102522.44;;;11.46;100.00
58534;BME280;44109;52.398;7.024;2024-01-25T12:32:37;102513.81;;;11.38;100.00
58534;BME280;44109;52.398;7.024;2024-01-25T12:35:05;102520.97;;;11.39;100.00
58534;BME280;44109;52.398;7.024;2024-01-25T12:37:35;102512.66;;;11.39;100.00
58534;BME280;44109;52.398;7.024;2024-01-25T12:40:03;102521.84;;;11.31;100.00
58534;BME280;44109;52.398;7.024;2024-01-25T12:42:32;102513.41;;;11.19;100.00
58534;BME280;44109;52.398;7.024;2024-01-25T12:44:59;102522.28;;;11.04;100.00
58534;BME280;44109;52.398;7.024;2024-01-25T12:47:27;102523.00;;;11.22;100.00
58534;BME280;44109;52.398;7.024;2024-01-25T12:49:55;102513.78;;;11.09;100.00
58534;BME280;44109;52.398;7.024;2024-01-25T12:52:22;102523.53;;;11.15;100.00
58534;BME280;44109;52.398;7.024;2024-01-25T12:54:51;102523.78;;;10.84;100.00
58534;BME280;44109;52.398;7.024;2024-01-25T12:57:19;102519.97;;;11.06;100.00
58534;BME280;44109;52.398;7.024;2024-01-25T12:59:46;102534.31;;;11.08;100.00
58534;BME280;44109;52.398;7.024;2024-01-25T13:02:14;102527.09;;;11.24;100.00
58534;BME280;44109;52.398;7.024;2024-01-25T13:04:42;102525.69;;;11.09;100.00